Terminal Aerodrome Forecast
Issued by NWS Charleston, WV

Current Version | Previous Version | Text Only | Print | Product List | Glossary Off
Versions: 1 2 3 4 5 6 7 8 9 10 11 12 13 14 15 16 17 18 19

000
FTUS41 KRLX 012300
TAFPKB
TAF
KPKB 012329Z 0200/0224 32007KT P6SM FEW080
     FM020900 00000KT 4SM BR SKC
     FM021100 00000KT 2SM BR FEW001
     FM021200 00000KT 4SM BR FEW250
     FM021300 32007KT P6SM FEW250=

USA.gov is the U.S. government's official web portal to all federal, state and local government web resources and services.